createdAt,value
2022-10-21T00:02:10.013Z,15.78
2022-10-21T00:04:58.435Z,15.77
2022-10-21T00:07:46.850Z,15.74
2022-10-21T00:13:27.547Z,15.75
2022-10-21T00:16:19.319Z,15.68
2022-10-21T00:19:07.771Z,15.68
2022-10-21T00:21:56.193Z,15.65
2022-10-21T00:24:44.592Z,15.69
2022-10-21T00:27:34.405Z,15.76
2022-10-21T00:30:22.902Z,15.67
2022-10-21T00:33:11.324Z,15.63
2022-10-21T00:36:02.662Z,15.62
2022-10-21T00:38:51.111Z,15.58
2022-10-21T00:41:39.567Z,15.61
2022-10-21T00:44:29.331Z,15.57
2022-10-21T00:47:22.594Z,15.58
2022-10-21T00:50:20.659Z,15.43
2022-10-21T00:53:12.315Z,15.62
2022-10-21T00:56:05.403Z,15.62
2022-10-21T00:58:55.615Z,15.71
2022-10-21T01:01:45.412Z,15.73
2022-10-21T01:04:33.845Z,15.63
2022-10-21T01:07:22.231Z,15.66
2022-10-21T01:10:10.710Z,15.69
2022-10-21T01:13:10.605Z,15.61
2022-10-21T01:16:03.759Z,15.30
2022-10-21T01:19:00.895Z,15.52
2022-10-21T01:21:51.987Z,15.34
2022-10-21T01:24:59.240Z,15.24
2022-10-21T01:27:53.388Z,15.48
2022-10-21T01:30:44.045Z,15.41
2022-10-21T01:33:39.922Z,15.45
2022-10-21T01:36:32.535Z,15.39
2022-10-21T01:39:25.364Z,15.34
2022-10-21T01:42:17.829Z,15.32
2022-10-21T01:45:11.126Z,15.33
2022-10-21T01:48:04.561Z,15.41
2022-10-21T01:50:54.560Z,15.43
2022-10-21T01:53:46.825Z,15.38
2022-10-21T01:56:35.340Z,15.29
2022-10-21T01:59:26.923Z,15.34
2022-10-21T02:02:17.087Z,15.29
2022-10-21T02:05:11.452Z,14.96
2022-10-21T02:07:59.886Z,15.19
2022-10-21T02:10:50.281Z,15.15
2022-10-21T02:13:43.334Z,15.23
2022-10-21T02:16:36.695Z,15.19
2022-10-21T02:19:25.144Z,15.18
2022-10-21T02:22:18.862Z,15.16
2022-10-21T02:25:11.599Z,15.19
2022-10-21T02:28:00.187Z,15.24
2022-10-21T02:30:57.476Z,15.27
2022-10-21T02:33:53.328Z,15.26
2022-10-21T02:36:51.278Z,15.35
2022-10-21T02:39:45.622Z,15.29
2022-10-21T02:42:37.137Z,15.30
2022-10-21T02:45:27.315Z,15.20
2022-10-21T02:48:15.775Z,15.33
2022-10-21T02:51:05.954Z,15.27
2022-10-21T02:53:54.347Z,15.24
2022-10-21T02:56:44.099Z,15.23
2022-10-21T02:59:32.518Z,15.41
2022-10-21T03:02:20.908Z,15.35
2022-10-21T03:05:10.401Z,15.32
2022-10-21T03:07:58.823Z,15.30
2022-10-21T03:10:52.979Z,15.29
2022-10-21T03:13:43.323Z,15.23
2022-10-21T03:16:31.740Z,15.37
2022-10-21T03:19:20.162Z,15.46
2022-10-21T03:22:08.604Z,15.45
2022-10-21T03:24:57.098Z,15.19
2022-10-21T03:27:45.495Z,15.39
2022-10-21T03:30:35.266Z,15.42
2022-10-21T03:33:23.681Z,15.42
2022-10-21T03:36:12.112Z,15.49
2022-10-21T03:39:00.537Z,15.50
2022-10-21T03:41:48.949Z,15.50
2022-10-21T03:44:37.410Z,15.42
2022-10-21T03:47:27.200Z,15.44
2022-10-21T03:50:18.210Z,15.43
2022-10-21T03:53:13.972Z,15.39
2022-10-21T03:56:13.327Z,15.11
2022-10-21T03:59:01.754Z,15.37
2022-10-21T04:01:50.205Z,15.40
2022-10-21T04:04:40.025Z,15.39
2022-10-21T04:07:28.439Z,15.35
2022-10-21T04:10:16.956Z,14.91
2022-10-21T04:13:05.395Z,15.30
2022-10-21T04:15:58.826Z,15.13
2022-10-21T04:18:47.391Z,15.24
2022-10-21T04:21:37.176Z,15.22
2022-10-21T04:24:25.600Z,15.22
2022-10-21T04:27:14.025Z,15.22
2022-10-21T04:30:02.408Z,15.25
2022-10-21T04:32:51.691Z,15.23
2022-10-21T04:35:40.870Z,14.97
2022-10-21T04:38:30.655Z,15.23
2022-10-21T04:41:19.056Z,15.22
2022-10-21T04:44:07.546Z,15.07
2022-10-21T04:46:56.002Z,15.19
2022-10-21T04:49:44.421Z,15.20
2022-10-21T04:52:32.848Z,15.23
2022-10-21T04:55:22.585Z,15.18
2022-10-21T04:58:11.203Z,15.22
2022-10-21T05:00:59.711Z,15.21
2022-10-21T05:03:48.198Z,15.08
2022-10-21T05:06:36.603Z,15.15
2022-10-21T05:09:25.059Z,15.12
2022-10-21T05:12:14.919Z,15.25
2022-10-21T05:15:03.392Z,15.18
2022-10-21T05:17:52.504Z,15.14
2022-10-21T05:20:40.926Z,15.20
2022-10-21T05:23:29.484Z,15.14
2022-10-21T05:26:17.894Z,15.09
2022-10-21T05:29:07.742Z,15.15
2022-10-21T05:31:56.164Z,15.16
2022-10-21T05:34:44.567Z,15.14
2022-10-21T05:37:33.167Z,15.13
2022-10-21T05:40:21.634Z,15.16
2022-10-21T05:43:10.064Z,15.06
2022-10-21T05:45:59.948Z,14.99
2022-10-21T05:51:41.953Z,15.21
2022-10-21T05:54:30.422Z,15.22
2022-10-21T05:57:18.868Z,15.19
2022-10-21T06:00:08.891Z,15.23
2022-10-21T06:02:58.704Z,15.23
2022-10-21T06:05:47.149Z,15.18
2022-10-21T06:08:37.546Z,15.11
2022-10-21T06:11:26.081Z,15.15
2022-10-21T06:14:14.528Z,15.13
2022-10-21T06:17:03.076Z,15.18
2022-10-21T06:19:52.908Z,15.13
2022-10-21T06:22:41.361Z,15.15
2022-10-21T06:25:29.910Z,15.12
2022-10-21T06:28:18.365Z,15.13
2022-10-21T06:31:07.943Z,15.06
2022-10-21T06:33:56.384Z,15.11
2022-10-21T06:36:46.204Z,15.05
2022-10-21T06:39:34.616Z,15.15
2022-10-21T06:42:23.043Z,15.11
2022-10-21T06:45:12.061Z,15.12
2022-10-21T06:48:00.513Z,15.11
2022-10-21T06:50:48.959Z,15.28
2022-10-21T06:53:39.642Z,15.20
2022-10-21T06:56:28.896Z,15.19
2022-10-21T06:59:17.393Z,15.29
2022-10-21T07:02:05.874Z,15.24
2022-10-21T07:04:54.306Z,15.17
2022-10-21T07:07:42.759Z,15.19
2022-10-21T07:10:32.629Z,15.23
2022-10-21T07:13:25.532Z,15.34
2022-10-21T07:16:25.468Z,13.92
2022-10-21T07:19:14.152Z,15.33
2022-10-21T07:22:02.637Z,15.30
2022-10-21T07:24:51.153Z,15.34
2022-10-21T07:27:42.443Z,15.37
2022-10-21T07:30:33.313Z,15.33
2022-10-21T07:33:21.781Z,15.38
2022-10-21T07:36:12.335Z,15.36
2022-10-21T07:39:03.315Z,15.22
2022-10-21T07:41:52.998Z,15.39
2022-10-21T07:44:42.836Z,15.40
2022-10-21T07:47:31.391Z,15.39
2022-10-21T07:50:19.953Z,15.36
2022-10-21T07:53:12.459Z,15.44
2022-10-21T07:56:06.964Z,15.43
2022-10-21T07:58:55.787Z,15.44
2022-10-21T08:01:47.367Z,15.37
2022-10-21T08:04:35.835Z,15.44
2022-10-21T08:07:24.459Z,15.32
2022-10-21T08:10:12.883Z,15.42
2022-10-21T08:13:01.301Z,15.47
2022-10-21T08:15:50.923Z,15.44
2022-10-21T08:18:40.749Z,15.47
2022-10-21T08:21:31.119Z,15.51
2022-10-21T08:24:19.612Z,15.50
2022-10-21T08:27:08.111Z,15.53
2022-10-21T08:29:56.606Z,15.58
2022-10-21T08:32:45.268Z,15.53
2022-10-21T08:35:35.119Z,15.57
2022-10-21T08:38:23.741Z,15.57
2022-10-21T08:41:24.636Z,15.65
2022-10-21T08:44:18.257Z,15.79
2022-10-21T08:47:12.966Z,15.80
2022-10-21T08:50:03.652Z,15.79
2022-10-21T08:52:56.393Z,15.92
2022-10-21T08:55:46.330Z,15.76
2022-10-21T08:58:35.294Z,15.90
2022-10-21T09:01:29.720Z,15.90
2022-10-21T09:04:24.342Z,15.89
2022-10-21T09:07:19.473Z,15.92
2022-10-21T09:10:16.088Z,16.01
2022-10-21T09:13:08.127Z,16.07
2022-10-21T09:16:02.867Z,15.99
2022-10-21T09:19:00.042Z,16.07
2022-10-21T09:22:16.452Z,16.20
2022-10-21T09:25:20.490Z,16.23
2022-10-21T09:28:13.657Z,16.27
2022-10-21T09:31:03.910Z,16.34
2022-10-21T09:33:56.344Z,16.45
2022-10-21T09:36:48.539Z,16.55
2022-10-21T09:39:41.882Z,16.61
2022-10-21T09:42:48.489Z,16.64
2022-10-21T09:45:39.176Z,16.71
2022-10-21T09:48:35.527Z,16.81
2022-10-21T09:51:32.917Z,16.83
2022-10-21T09:54:23.477Z,16.78
2022-10-21T09:57:14.931Z,16.76
2022-10-21T10:00:08.347Z,16.72
2022-10-21T10:03:00.041Z,16.80
2022-10-21T10:05:49.126Z,16.80
2022-10-21T10:08:39.565Z,16.74
2022-10-21T10:11:28.117Z,16.88
2022-10-21T10:14:31.802Z,16.92
2022-10-21T10:17:28.871Z,16.95
2022-10-21T10:20:20.189Z,16.98
2022-10-21T10:23:19.256Z,17.11
2022-10-21T10:26:08.637Z,17.07
2022-10-21T10:28:59.277Z,17.11
2022-10-21T10:31:50.806Z,17.11
2022-10-21T10:34:51.544Z,17.17
2022-10-21T10:37:40.688Z,17.30
2022-10-21T10:40:32.542Z,17.22
2022-10-21T10:43:26.080Z,17.20
2022-10-21T10:46:24.158Z,17.27
2022-10-21T10:49:22.473Z,17.40
2022-10-21T10:52:24.073Z,17.46
2022-10-21T10:55:18.504Z,17.41
2022-10-21T10:58:12.713Z,17.39
2022-10-21T11:01:10.936Z,17.43
2022-10-21T11:04:03.782Z,17.49
2022-10-21T11:06:55.553Z,17.59
2022-10-21T11:09:46.127Z,17.56
2022-10-21T11:12:34.758Z,17.55
2022-10-21T11:15:26.888Z,17.56
2022-10-21T11:18:24.482Z,17.57
2022-10-21T11:21:25.341Z,17.63
2022-10-21T11:24:52.735Z,17.84
2022-10-21T11:28:00.010Z,17.85
2022-10-21T11:30:59.822Z,17.91
2022-10-21T11:33:52.620Z,17.86
2022-10-21T11:36:49.714Z,17.91
2022-10-21T11:39:45.426Z,17.96
2022-10-21T11:42:41.303Z,18.05
2022-10-21T11:45:38.149Z,17.50
2022-10-21T11:48:55.627Z,18.06
2022-10-21T11:51:49.609Z,18.17
2022-10-21T11:55:10.375Z,18.13
2022-10-21T11:58:08.147Z,18.12
2022-10-21T12:01:07.675Z,18.22
2022-10-21T12:04:09.793Z,18.18
2022-10-21T12:07:11.434Z,18.18
2022-10-21T12:10:06.122Z,18.16
2022-10-21T12:12:56.143Z,18.26
2022-10-21T12:15:47.685Z,18.26
2022-10-21T12:18:42.159Z,18.26
2022-10-21T12:21:34.077Z,18.28
2022-10-21T12:24:28.693Z,18.36
2022-10-21T12:27:22.232Z,18.15
2022-10-21T12:30:15.415Z,18.18
2022-10-21T12:33:15.931Z,18.37
2022-10-21T12:36:20.996Z,18.39
2022-10-21T12:39:13.271Z,18.43
2022-10-21T12:42:06.481Z,18.42
2022-10-21T12:44:55.159Z,17.73
2022-10-21T12:47:46.716Z,18.05
2022-10-21T12:50:35.768Z,18.51
2022-10-21T12:53:34.855Z,18.58
2022-10-21T12:56:29.678Z,18.60
2022-10-21T12:59:28.919Z,18.63
2022-10-21T13:02:27.105Z,18.65
2022-10-21T13:05:56.247Z,18.67
2022-10-21T13:08:55.167Z,18.66
2022-10-21T13:11:43.689Z,18.70
2022-10-21T13:14:40.630Z,18.67
2022-10-21T13:17:34.486Z,18.68
2022-10-21T13:20:45.464Z,18.68
2022-10-21T13:23:38.651Z,18.67
2022-10-21T13:26:30.086Z,18.69
2022-10-21T13:29:31.425Z,18.72
2022-10-21T13:32:28.589Z,18.75
2022-10-21T13:35:33.355Z,18.79
2022-10-21T13:38:23.999Z,18.83
2022-10-21T13:41:22.439Z,18.83
2022-10-21T13:44:29.390Z,18.83
2022-10-21T13:47:30.072Z,18.81
2022-10-21T13:50:21.706Z,18.79
2022-10-21T13:53:23.605Z,18.63
2022-10-21T13:56:19.890Z,18.73
2022-10-21T13:59:23.321Z,18.74
2022-10-21T14:02:24.860Z,18.65
2022-10-21T14:05:32.101Z,18.73
2022-10-21T14:08:27.261Z,18.76
2022-10-21T14:11:18.650Z,18.74
2022-10-21T14:14:09.544Z,18.73
2022-10-21T14:17:01.483Z,18.68
2022-10-21T14:19:52.700Z,18.78
2022-10-21T14:22:41.638Z,18.77
2022-10-21T14:25:30.939Z,18.72
2022-10-21T14:28:20.843Z,18.68
2022-10-21T14:31:12.406Z,18.65
2022-10-21T14:34:02.327Z,18.64
2022-10-21T14:37:09.454Z,18.59
2022-10-21T14:40:11.349Z,18.53
2022-10-21T14:43:01.785Z,18.51
2022-10-21T14:45:52.171Z,18.47
2022-10-21T14:48:46.560Z,18.44
2022-10-21T14:51:38.317Z,18.38
2022-10-21T14:54:30.345Z,18.41
2022-10-21T14:57:30.720Z,18.27
2022-10-21T15:00:28.935Z,18.33
2022-10-21T15:03:37.631Z,18.23
2022-10-21T15:06:27.509Z,18.19
2022-10-21T15:09:23.994Z,18.13
2022-10-21T15:12:19.404Z,18.07
2022-10-21T15:15:41.185Z,18.04
2022-10-21T15:18:31.070Z,17.98
2022-10-21T15:21:27.382Z,17.93
2022-10-21T15:24:21.506Z,17.90
2022-10-21T15:27:17.198Z,17.88
2022-10-21T15:30:07.261Z,17.82
2022-10-21T15:32:56.039Z,17.76
2022-10-21T15:35:44.652Z,17.57
2022-10-21T15:38:33.108Z,17.70
2022-10-21T15:41:24.880Z,17.65
2022-10-21T15:44:19.567Z,17.64
2022-10-21T15:47:11.234Z,17.57
2022-10-21T15:49:59.691Z,17.53
2022-10-21T15:52:48.328Z,17.51
2022-10-21T15:55:38.156Z,17.48
2022-10-21T15:58:28.255Z,17.41
2022-10-21T16:01:18.594Z,17.40
2022-10-21T16:04:07.092Z,17.31
2022-10-21T16:06:56.064Z,17.25
2022-10-21T16:09:44.522Z,17.19
2022-10-21T16:12:32.964Z,17.13
2022-10-21T16:15:23.232Z,17.09
2022-10-21T16:18:13.047Z,17.05
2022-10-21T16:21:01.713Z,16.85
2022-10-21T16:23:50.827Z,16.95
2022-10-21T16:26:41.388Z,16.89
2022-10-21T16:29:29.860Z,16.84
2022-10-21T16:32:19.993Z,16.62
2022-10-21T16:35:10.219Z,16.48
2022-10-21T16:37:59.020Z,16.67
2022-10-21T16:40:47.629Z,16.61
2022-10-21T16:43:36.468Z,16.56
2022-10-21T16:46:27.695Z,16.40
2022-10-21T16:49:21.267Z,16.44
2022-10-21T16:52:10.938Z,16.41
2022-10-21T16:54:59.593Z,16.36
2022-10-21T16:57:48.083Z,16.37
2022-10-21T17:00:37.013Z,16.34
2022-10-21T17:03:25.596Z,16.29
2022-10-21T17:06:17.464Z,16.23
2022-10-21T17:09:06.073Z,16.23
2022-10-21T17:11:54.978Z,16.14
2022-10-21T17:14:43.634Z,16.08
2022-10-21T17:17:32.115Z,16.07
2022-10-21T17:20:20.782Z,16.02
2022-10-21T17:23:12.698Z,15.99
2022-10-21T17:26:01.858Z,15.98
2022-10-21T17:28:52.465Z,15.95
2022-10-21T17:31:42.899Z,15.91
2022-10-21T17:34:33.002Z,15.92
2022-10-21T17:37:21.871Z,15.79
2022-10-21T17:40:15.933Z,15.77
2022-10-21T17:43:04.858Z,15.74
2022-10-21T17:45:53.785Z,15.71
2022-10-21T17:48:42.291Z,15.68
2022-10-21T17:51:31.202Z,15.65
2022-10-21T17:54:24.152Z,15.61
2022-10-21T17:57:17.885Z,15.53
2022-10-21T18:00:07.520Z,15.60
2022-10-21T18:02:56.003Z,15.58
2022-10-21T18:05:44.566Z,15.60
2022-10-21T18:08:33.229Z,15.55
2022-10-21T18:11:22.159Z,15.53
2022-10-21T18:14:12.042Z,15.47
2022-10-21T18:17:00.598Z,15.44
2022-10-21T18:19:49.152Z,15.41
2022-10-21T18:22:37.848Z,15.41
2022-10-21T18:25:26.610Z,15.32
2022-10-21T18:28:15.094Z,15.27
2022-10-21T18:31:06.069Z,15.26
2022-10-21T18:33:55.362Z,15.24
2022-10-21T18:36:43.921Z,15.22
2022-10-21T18:39:32.380Z,15.16
2022-10-21T18:42:20.843Z,15.07
2022-10-21T18:45:10.258Z,14.84
2022-10-21T18:48:00.106Z,15.00
2022-10-21T18:50:48.550Z,15.00
2022-10-21T18:53:37.872Z,14.94
2022-10-21T18:56:27.709Z,14.94
2022-10-21T18:59:16.212Z,14.89
2022-10-21T19:02:04.816Z,14.80
2022-10-21T19:04:57.083Z,14.80
2022-10-21T19:07:48.303Z,14.76
2022-10-21T19:10:37.784Z,14.75
2022-10-21T19:13:28.849Z,14.79
2022-10-21T19:16:20.048Z,14.79
2022-10-21T19:19:09.326Z,14.67
2022-10-21T19:21:59.245Z,14.74
2022-10-21T19:24:47.777Z,14.74
2022-10-21T19:27:36.485Z,14.67
2022-10-21T19:30:25.153Z,14.56
2022-10-21T19:33:13.877Z,14.67
2022-10-21T19:36:02.746Z,14.61
2022-10-21T19:38:52.750Z,14.46
2022-10-21T19:41:41.674Z,14.67
2022-10-21T19:44:30.403Z,14.63
2022-10-21T19:47:18.912Z,14.62
2022-10-21T19:50:08.891Z,14.56
2022-10-21T19:52:57.607Z,14.58
2022-10-21T19:55:47.672Z,14.60
2022-10-21T19:58:39.384Z,14.61
2022-10-21T20:01:27.991Z,14.61
2022-10-21T20:04:16.622Z,14.61
2022-10-21T20:07:05.072Z,14.57
2022-10-21T20:09:53.525Z,14.61
2022-10-21T20:12:43.723Z,14.54
2022-10-21T20:15:32.320Z,14.55
2022-10-21T20:18:23.513Z,14.54
2022-10-21T20:21:15.108Z,13.81
2022-10-21T20:24:04.445Z,14.51
2022-10-21T20:26:54.055Z,14.56
2022-10-21T20:29:45.484Z,14.54
2022-10-21T20:32:34.173Z,14.52
2022-10-21T20:35:22.640Z,14.53
2022-10-21T20:38:11.121Z,14.50
2022-10-21T20:41:02.349Z,14.47
2022-10-21T20:43:51.667Z,14.51
2022-10-21T20:46:41.456Z,14.49
2022-10-21T20:49:29.999Z,14.42
2022-10-21T20:52:18.649Z,14.43
2022-10-21T20:55:07.709Z,14.46
2022-10-21T20:57:56.175Z,14.48
2022-10-21T21:00:46.545Z,14.46
2022-10-21T21:03:38.513Z,14.35
2022-10-21T21:06:27.660Z,14.37
2022-10-21T21:09:57.314Z,14.15
2022-10-21T21:12:26.902Z,14.39
2022-10-21T21:15:15.681Z,14.31
2022-10-21T21:18:10.100Z,14.39
2022-10-21T21:21:04.957Z,14.40
2022-10-21T21:23:54.192Z,14.47
2022-10-21T21:26:43.084Z,14.48
2022-10-21T21:29:31.628Z,14.59
2022-10-21T21:32:20.051Z,14.67
2022-10-21T21:35:09.806Z,14.67
2022-10-21T21:37:59.606Z,14.82
2022-10-21T21:40:48.272Z,14.30
2022-10-21T21:43:36.996Z,15.31
2022-10-21T21:46:26.016Z,15.53
2022-10-21T21:49:14.437Z,15.75
2022-10-21T21:52:02.904Z,15.78
2022-10-21T21:54:54.455Z,15.80
2022-10-21T21:57:43.213Z,15.81
2022-10-21T22:00:31.875Z,15.78
2022-10-21T22:03:21.601Z,15.96
2022-10-21T22:06:10.235Z,15.80
2022-10-21T22:08:58.815Z,15.65
2022-10-21T22:11:48.643Z,15.72
2022-10-21T22:14:37.078Z,15.76
2022-10-21T22:17:26.036Z,15.89
2022-10-21T22:20:14.505Z,15.77
2022-10-21T22:23:02.907Z,15.75
2022-10-21T22:25:51.315Z,15.87
2022-10-21T22:28:41.604Z,15.97
2022-10-21T22:31:30.601Z,15.93
2022-10-21T22:34:19.456Z,15.71
2022-10-21T22:37:07.899Z,15.64
2022-10-21T22:39:56.314Z,15.56
2022-10-21T22:45:39.517Z,15.42
2022-10-21T22:48:27.961Z,15.41
2022-10-21T22:51:16.451Z,15.33
2022-10-21T22:54:11.649Z,15.31
2022-10-21T22:57:03.723Z,15.23
2022-10-21T22:59:53.490Z,15.21
2022-10-21T23:02:43.639Z,15.08
2022-10-21T23:05:32.508Z,15.18
2022-10-21T23:08:20.943Z,14.86
2022-10-21T23:11:09.339Z,14.99
2022-10-21T23:14:03.426Z,14.93
2022-10-21T23:16:56.460Z,14.90
2022-10-21T23:19:46.257Z,14.85
2022-10-21T23:22:34.771Z,14.87
2022-10-21T23:25:23.863Z,14.83
2022-10-21T23:28:12.342Z,14.77
2022-10-21T23:31:01.234Z,14.71
2022-10-21T23:33:49.727Z,14.72
2022-10-21T23:36:39.490Z,14.66
2022-10-21T23:39:28.058Z,14.72
2022-10-21T23:42:16.498Z,14.63
2022-10-21T23:45:05.886Z,14.66
2022-10-21T23:47:54.279Z,14.61
2022-10-21T23:50:44.678Z,14.66
2022-10-21T23:53:34.665Z,14.64
2022-10-21T23:56:23.148Z,14.63
2022-10-21T23:59:11.578Z,14.49
